West Elwood, Indiana
Current Conditions -  °F | °C
As of 7:15 AM on Tuesday 27 Jan 2015 (Local Time) from KMZZ Reporting Station
Overcast Overcast  
Wind Chill: 10°   Ceiling: 6500
Heat Index: 20°   Visibility: 10mi
Dew Point: 13°   Wind: 8mph
Humidity: 74%   Direction: 80°E
Pressure: 30.01"   Gusts: NA
Location:  40.3067°N, 85.834°W
Report Text: KMZZ 271215Z AUTO 08007KT 10SM SCT031 OVC065 M07/M11 A3001 RMK AO2 T10661106
Loading
Personal Weather Stations






























Interactive Weather Map New forecast layout! Learn more

10-Day Weather Forecast

Advertisements
Track Severe Weather on mobile